Latest Coastal Weather Observations for Taree Airport

IDN60701

Issued at 7:55 pm EDT Tuesday 21 October 2014 (issued every 10 minutes, with the page automatically refreshed every 10 minutes)

About coastal observations | Map of coastal stations | Coastal observations for NSW | Marine services | Other Formats
Station Details ID: 060141 Name: TAREE AIRPORT AWS Lat: -31.89 Lon: 152.51 Height: 8.0 m
Data from the previous 72 hours. | See also: Recent months at Taree Airport
Date/Time
EDT
Temp

°C
Wind Pressure Rain
since 9am
mm
Weather Cloud Vis
km
Sea
Height
m
Swell
Dir
 
Speed
knots
Gust
knots
hPa Trend Height
m
Period
s
Dir
21/07:30pm 17.0 SE 1 3 1029.7 - 0.0 - - - - - - -
21/07:00pm 17.1 SE 4 5 1029.6 - 0.0 - - - - - - -
21/06:30pm 17.3 SE 5 7 1029.4 - 0.0 - - - - - - -
21/06:00pm 17.5 SE 7 9 1029.2 - 0.0 - - - - - - -
21/05:30pm 17.9 SSE 7 10 1029.1 - 0.0 - - - - - - -
21/05:00pm 18.2 SSE 8 10 1029.2 - 0.0 - - - - - - -
21/04:30pm 18.3 SSE 9 14 1029.1 - 0.0 - - - - - - -
21/04:00pm 18.5 SE 10 14 1029.2 - 0.0 - - - - - - -
21/03:30pm 18.6 SE 10 15 1029.4 - 0.0 - - - - - - -
21/03:00pm 18.4 SE 9 13 1029.8 - 0.0 - - - - - - -
21/02:30pm 18.9 SE 9 13 1030.0 - 0.0 - - - - - - -
21/02:00pm 19.2 SE 9 12 1030.3 - 0.0 - - - - - - -
21/01:30pm 19.3 SE 9 13 1030.6 - 0.0 - - - - - - -
21/01:00pm 19.4 SSE 9 14 1030.8 - 0.0 - - - - - - -
21/12:30pm 19.5 SSE 7 11 1030.9 - 0.0 - - - - - - -
21/12:00pm 18.9 SSE 8 13 1031.2 - 0.0 - - - - - - -
21/11:30am 19.0 SSE 9 14 1031.3 - 0.0 - - - - - - -
21/11:00am 18.7 SSE 9 14 1031.5 - 0.0 - - - - - - -
21/10:30am 18.2 SE 8 11 1031.6 - 0.0 - - - - - - -
21/10:00am 17.8 SSE 6 9 1031.7 - 0.0 - - - - - - -
21/09:30am 17.6 SSE 8 10 1031.7 - 0.0 - - - - - - -
21/09:00am 17.4 SSE 9 15 1031.4 - 1.0 - - - - - - -
21/08:30am 17.3 SE 6 9 1031.1 - 1.0 - - - - - - -
21/08:00am 16.9 SE 7 8 1030.8 - 1.0 - - - - - - -
21/07:30am 16.4 SSE 7 10 1030.5 - 1.0 - - - - - - -
21/07:00am 15.9 SSE 3 6 1030.2 - 1.0 - - - - - - -
21/06:30am 15.6 W 1 4 1029.9 - 1.0 - - - - - - -
21/06:00am 15.6 W 3 5 1029.5 - 1.0 - - - - - - -
21/05:30am 15.5 SSW 4 5 1029.4 - 1.0 - - - - - - -
21/05:00am 15.7 SSW 4 5 1029.2 - 1.0 - - - - - - -
21/04:30am 15.6 CALM 0 0 1029.2 - 1.0 - - - - - - -
21/04:00am 15.7 W 4 5 1029.3 - 1.0 - - - - - - -
21/03:30am 15.8 WSW 5 6 1029.3 - 1.0 - - - - - - -
21/03:00am 15.9 SSW 5 6 1029.3 - 1.0 - - - - - - -
21/02:30am 16.0 SSW 6 7 1029.5 - 1.0 - - - - - - -
21/02:00am 16.0 SSW 7 9 1029.8 - 1.0 - - - - - - -
21/01:30am 15.8 SW 6 7 1029.9 - 1.0 - - - - - - -
21/01:00am 16.0 WSW 7 9 1030.0 - 1.0 - - - - - - -
21/12:30am 15.9 W 4 6 1030.3 - 1.0 - - - - - - -
21/12:00am 15.9 SW 6 8 1030.5 - 1.0 - - - - - - -
 
Date/Time
EDT
Temp

°C
Wind Pressure Rain
since 9am
mm
Weather Cloud Vis
km
Sea
Height
m
Swell
Dir
 
Speed
knots
Gust
knots
hPa Trend Height
m
Period
s
Dir
20/11:30pm 16.3 S 7 11 1030.7 - 1.0 - - - - - - -
20/11:00pm 16.6 S 4 5 1030.6 - 1.0 - - - - - - -
20/10:30pm 16.7 SSW 6 7 1030.6 - 1.0 - - - - - - -
20/10:00pm 16.6 S 6 8 1030.4 - 1.0 - - - - - - -
20/09:30pm 16.5 S 7 9 1030.3 - 1.0 - - - - - - -
20/09:00pm 16.5 S 8 12 1030.0 - 1.0 - - - - - - -
20/08:30pm 16.6 S 7 10 1029.7 - 1.0 - - - - - - -
20/08:00pm 16.6 SSW 5 7 1029.1 - 1.0 - - - - - - -
20/07:30pm 16.6 S 7 10 1028.8 - 1.0 - - - - - - -
20/07:00pm 16.5 S 7 10 1028.6 - 1.0 - - - - - - -
20/06:30pm 16.9 S 6 8 1028.1 - 0.8 - - - - - - -
20/06:00pm 16.9 S 6 9 1028.1 - 0.6 Rain - - - - - -
20/05:30pm 19.2 SSW 11 15 1027.7 - 0.2 - - - - - - -
20/05:00pm 19.4 SSW 12 17 1027.6 - 0.2 - - - - - - -
20/04:30pm 20.3 S 10 14 1027.4 - 0.2 - - - - - - -
20/04:00pm 19.8 SSW 11 17 1027.4 - 0.2 - - - - - - -
20/03:30pm 19.9 S 13 17 1027.5 - 0.2 - - - - - - -
20/03:00pm 20.1 S 13 19 1027.5 - 0.2 - - - - - - -
20/02:30pm 20.5 SSW 13 18 1027.6 - 0.2 - - - - - - -
20/02:00pm 19.1 SSW 15 23 1028.1 - 0.2 - - - - - - -
20/01:30pm 19.3 SSW 14 19 1028.0 - 0.2 - - - - - - -
20/01:00pm 19.0 S 18 23 1027.9 - 0.2 - - - - - - -
20/12:30pm 20.7 S 19 26 1027.5 - 0.0 - - - - - - -
20/12:01pm 22.2 SSW 20 31 1027.3 - 0.0 - - - - - - -
20/12:00pm 22.5 SSW 20 26 1027.3 - 0.0 - - - - - - -
20/11:30am 22.1 SSW 18 24 1027.1 - 0.0 - - - - - - -
20/11:00am 23.4 SSW 19 26 1026.4 - 0.0 - - - - - - -
20/10:30am 23.9 S 21 27 1025.9 - 0.0 - - - - - - -
20/10:23am 23.8 S 19 26 1025.7 - 0.0 - - - - - - -
20/10:00am 22.0 SW 7 9 1025.2 - 0.0 - - - - - - -
20/09:30am 20.7 NW 1 6 1024.0 - 0.0 - - - - - - -
20/09:00am 18.5 W 2 5 1024.0 - 0.0 - - - - - - -
20/08:30am 16.3 W 4 4 1023.6 - 0.0 - - - - - - -
20/08:00am 14.6 W 3 4 1023.5 - 0.0 - - - - - - -
20/07:30am 12.8 W 4 5 1023.5 - 0.0 - - - - - - -
20/07:00am 11.8 CALM 0 0 1023.1 - 0.0 - - - - - - -
20/06:30am 11.1 CALM 0 0 1022.8 - 0.0 - - - - - - -
20/06:00am 10.4 CALM 0 0 1022.7 - 0.0 - - - - - - -
20/05:30am 9.8 CALM 0 0 1022.4 - 0.0 - - - - - - -
20/05:00am 10.8 N 1 4 1022.1 - 0.0 - - - - - - -
20/04:30am 10.9 CALM 0 0 1022.0 - 0.0 - - - - - - -
20/04:00am 11.4 CALM 0 0 1022.1 - 0.0 - - - - - - -
20/03:30am 12.0 CALM 0 0 1022.2 - 0.0 - - - - - - -
20/03:00am 12.3 CALM 0 0 1022.5 - 0.0 - - - - - - -
20/02:30am 12.2 CALM 0 0 1022.9 - 0.0 - - - - - - -
20/02:00am 12.2 CALM 0 0 1023.2 - 0.0 - - - - - - -
20/01:30am 12.8 CALM 0 0 1023.5 - 0.0 - - - - - - -
20/01:00am 13.0 CALM 0 0 1023.7 - 0.0 - - - - - - -
20/12:30am 14.0 CALM 0 0 1024.1 - 0.0 - - - - - - -
20/12:00am 13.8 CALM 0 0 1024.5 - 0.0 - - - - - - -
 
Date/Time
EDT
Temp

°C
Wind Pressure Rain
since 9am
mm
Weather Cloud Vis
km
Sea
Height
m
Swell
Dir
 
Speed
knots
Gust
knots
hPa Trend Height
m
Period
s
Dir
19/11:30pm 14.0 CALM 0 0 1024.6 - 0.0 - - - - - - -
19/11:00pm 14.6 CALM 0 0 1024.7 - 0.0 - - - - - - -
19/10:30pm 15.2 NNE 1 4 1024.8 - 0.0 - - - - - - -
19/10:00pm 16.2 NNE 4 5 1024.9 - 0.0 - - - - - - -
19/09:30pm 15.8 NE 5 7 1024.9 - 0.0 - - - - - - -
19/09:00pm 16.0 NE 6 7 1024.8 - 0.0 - - - - - - -
19/08:30pm 16.1 NE 6 7 1024.5 - 0.0 - - - - - - -
19/08:00pm 16.9 ENE 7 8 1024.2 - 0.0 - - - - - - -
19/07:30pm 17.8 ENE 7 9 1023.9 - 0.0 - - - - - - -
19/07:00pm 18.8 ENE 9 12 1023.7 - 0.0 - - - - - - -
19/06:30pm 19.7 ENE 11 16 1023.5 - 0.0 - - - - - - -
19/06:00pm 20.6 ENE 11 16 1023.4 - 0.0 - - - - - - -
19/05:30pm 21.2 ENE 13 17 1023.2 - 0.0 - - - - - - -
19/05:00pm 21.7 E 11 17 1023.1 - 0.0 - - - - - - -
19/04:30pm 21.8 E 12 18 1023.1 - 0.0 - - - - - - -
19/04:00pm 22.2 E 14 18 1023.2 - 0.0 - - - - - - -
19/03:30pm 21.8 E 13 18 1023.4 - 0.0 - - - - - - -
19/03:00pm 21.9 E 12 16 1024.0 - 0.0 - - - - - - -
19/02:30pm 22.4 ENE 11 16 1024.5 - 0.0 - - - - - - -
19/02:00pm 22.8 ESE 12 15 1024.9 - 0.0 - - - - - - -
19/01:30pm 22.3 ESE 11 14 1025.3 - 0.0 - - - - - - -
19/01:00pm 23.3 ESE 9 14 1025.5 - 0.0 - - - - - - -
19/12:30pm 23.5 NE 6 9 1025.7 - 0.0 - - - - - - -
19/12:00pm 22.1 ESE 6 8 1026.2 - 0.0 - - - - - - -
19/11:30am 22.2 NE 7 11 1026.6 - 0.0 - - - - - - -
19/11:00am 21.0 NE 5 10 1027.0 - 0.0 - - - - - - -
19/10:30am 21.0 ENE 4 8 1027.6 - 0.0 - - - - - - -
19/10:00am 19.8 NE 3 6 1027.8 - 0.0 - - - - - - -
19/09:30am 18.7 SSW 1 5 1028.0 - 0.0 - - - - - - -
19/09:00am 16.9 S 2 4 1028.0 - 0.0 - - - - - - -
19/08:30am 15.9 WNW 3 5 1027.8 - 0.0 - - - - - - -
19/08:00am 13.6 W 5 5 1027.8 - 0.0 - - - - - - -
19/07:30am 12.3 WNW 5 6 1027.9 - 0.0 - - - - - - -
19/07:00am 11.2 CALM 0 2 1027.7 - 0.0 - - - - - - -
19/06:30am 10.0 CALM 0 0 1027.4 - 0.0 - - - - - - -
19/06:00am 10.3 W 3 4 1027.1 - 0.0 - - - - - - -
19/05:30am 10.4 CALM 0 0 1026.8 - 0.0 - - - - - - -
19/05:00am 10.7 CALM 0 0 1026.8 - 0.0 - - - - - - -
19/04:30am 10.8 CALM 0 0 1026.6 - 0.0 - - - - - - -
19/04:00am 10.9 CALM 0 0 1026.7 - 0.0 - - - - - - -
19/03:30am 11.7 CALM 0 0 1027.0 - 0.0 - - - - - - -
19/03:00am 12.3 CALM 0 0 1027.4 - 0.0 - - - - - - -
19/02:30am 12.6 CALM 0 0 1027.5 - 0.0 - - - - - - -
19/02:00am 13.0 CALM 0 0 1027.6 - 0.0 - - - - - - -
19/01:30am 13.6 CALM 0 2 1027.8 - 0.0 - - - - - - -
19/01:00am 14.2 CALM 0 0 1028.0 - 0.0 - - - - - - -
19/12:30am 15.3 W 4 5 1028.4 - 0.0 - - - - - - -
19/12:00am 15.4 NW 1 3 1028.5 - 0.0 - - - - - - -
 
Date/Time
EDT
Temp

°C
Wind Pressure Rain
since 9am
mm
Weather Cloud Vis
km
Sea
Height
m
Swell
Dir
 
Speed
knots
Gust
knots
hPa Trend Height
m
Period
s
Dir
18/11:30pm 15.2 NNW 3 4 1028.5 - 0.0 - - - - - - -
18/11:00pm 16.0 CALM 0 1 1028.7 - 0.0 - - - - - - -
18/10:30pm 16.3 NW 2 5 1029.0 - 0.0 - - - - - - -
18/10:00pm 16.3 SSW 3 4 1029.0 - 0.0 - - - - - - -
18/09:30pm 16.7 CALM 0 0 1029.0 - 0.0 - - - - - - -
18/09:00pm 16.8 ESE 2 3 1028.8 - 0.0 - - - - - - -
18/08:30pm 16.6 E 2 4 1028.6 - 0.0 - - - - - - -
18/08:00pm 16.7 ESE 3 4 1028.3 - 0.0 - - - - - - -

Other Formats:

Comma delimited format used in spreadsheet applications
http://www.bom.gov.au/fwo/IDN60701/IDN60701.95784.axf

JavaScript Object Notation format (JSON) in row-major order
http://www.bom.gov.au/fwo/IDN60701/IDN60701.95784.json